createdAt,value
2022-10-07T00:01:47.411Z,21.02
2022-10-07T00:04:15.784Z,28.27
2022-10-07T00:06:45.406Z,16.33
2022-10-07T00:09:13.507Z,18.42
2022-10-07T00:11:42.616Z,15.43
2022-10-07T00:14:11.742Z,18.38
2022-10-07T00:16:41.772Z,22.30
2022-10-07T00:19:12.922Z,18.38
2022-10-07T00:21:41.669Z,22.80
2022-10-07T00:24:11.484Z,21.55
2022-10-07T00:26:39.679Z,20.45
2022-10-07T00:29:08.109Z,17.30
2022-10-07T00:31:37.666Z,21.02
2022-10-07T00:34:06.409Z,24.75
2022-10-07T00:36:37.356Z,22.63
2022-10-07T00:39:07.722Z,18.08
2022-10-07T00:41:39.018Z,20.05
2022-10-07T00:44:36.685Z,21.27
2022-10-07T00:47:11.680Z,19.58
2022-10-07T00:49:44.984Z,23.52
2022-10-07T00:52:14.071Z,22.98
2022-10-07T00:54:42.240Z,20.45
2022-10-07T00:57:12.094Z,18.45
2022-10-07T00:59:41.477Z,22.35
2022-10-07T01:02:10.135Z,23.85
2022-10-07T01:04:39.632Z,25.05
2022-10-07T01:07:07.672Z,19.63
2022-10-07T01:09:35.919Z,23.65
2022-10-07T01:12:14.587Z,25.42
2022-10-07T01:14:53.072Z,19.77
2022-10-07T01:17:26.916Z,23.83
2022-10-07T01:20:33.757Z,21.58
2022-10-07T01:23:19.935Z,22.40
2022-10-07T01:26:05.089Z,23.85
2022-10-07T01:28:40.395Z,23.17
2022-10-07T01:31:13.334Z,19.60
2022-10-07T01:33:43.691Z,17.98
2022-10-07T01:36:17.391Z,21.60
2022-10-07T01:38:51.476Z,17.50
2022-10-07T01:41:23.165Z,13.65
2022-10-07T01:43:55.053Z,21.75
2022-10-07T01:46:24.614Z,18.58
2022-10-07T01:48:57.734Z,20.73
2022-10-07T01:51:28.208Z,22.23
2022-10-07T01:59:51.213Z,22.35
2022-10-07T02:05:04.604Z,19.38
2022-10-07T02:07:39.081Z,19.65
2022-10-07T02:10:13.727Z,21.27
2022-10-07T02:12:50.232Z,17.63
2022-10-07T02:15:25.590Z,22.00
2022-10-07T02:17:57.310Z,25.00
2022-10-07T02:22:58.902Z,25.15
2022-10-07T02:25:29.968Z,18.58
2022-10-07T02:28:03.432Z,20.85
2022-10-07T02:30:34.205Z,16.73
2022-10-07T02:33:06.729Z,20.48
2022-10-07T02:35:42.392Z,15.82
2022-10-07T02:38:15.178Z,21.05
2022-10-07T02:43:23.137Z,19.05
2022-10-07T02:46:00.276Z,13.73
2022-10-07T02:48:32.306Z,21.95
2022-10-07T02:51:05.210Z,16.10
2022-10-07T02:56:05.192Z,20.15
2022-10-07T02:58:34.603Z,16.17
2022-10-07T03:01:05.457Z,17.13
2022-10-07T03:03:33.651Z,21.15
2022-10-07T03:06:06.159Z,17.00
2022-10-07T03:08:48.264Z,14.82
2022-10-07T03:11:16.457Z,14.30
2022-10-07T03:13:45.351Z,17.92
2022-10-07T03:16:14.971Z,21.35
2022-10-07T03:18:43.120Z,20.20
2022-10-07T03:21:33.512Z,14.40
2022-10-07T03:24:04.836Z,18.00
2022-10-07T03:26:38.455Z,15.13
2022-10-07T03:29:08.300Z,18.38
2022-10-07T03:31:38.567Z,16.45
2022-10-07T03:34:07.924Z,12.05
2022-10-07T03:36:36.712Z,16.33
2022-10-07T03:39:06.615Z,22.02
2022-10-07T03:41:34.910Z,21.38
2022-10-07T03:44:06.646Z,22.58
2022-10-07T03:46:35.490Z,21.08
2022-10-07T03:49:05.163Z,18.23
2022-10-07T03:51:33.922Z,18.10
2022-10-07T03:54:02.858Z,18.95
2022-10-07T03:56:33.647Z,20.05
2022-10-07T03:59:02.262Z,16.95
2022-10-07T04:01:32.227Z,19.33
2022-10-07T04:04:01.717Z,16.27
2022-10-07T04:06:36.091Z,22.75
2022-10-07T04:09:09.533Z,25.17
2022-10-07T04:11:40.515Z,21.33
2022-10-07T04:14:09.648Z,19.05
2022-10-07T04:16:39.776Z,17.80
2022-10-07T04:19:10.156Z,18.33
2022-10-07T04:21:39.917Z,22.50
2022-10-07T04:24:08.027Z,24.50
2022-10-07T04:26:37.966Z,24.25
2022-10-07T04:29:06.719Z,25.85
2022-10-07T04:31:34.877Z,24.98
2022-10-07T04:34:06.800Z,23.00
2022-10-07T04:36:42.563Z,25.70
2022-10-07T04:41:54.958Z,22.38
2022-10-07T04:44:28.116Z,22.58
2022-10-07T04:47:08.447Z,25.15
2022-10-07T04:49:39.517Z,18.92
2022-10-07T04:52:11.313Z,23.60
2022-10-07T04:54:42.018Z,21.27
2022-10-07T04:57:13.490Z,18.83
2022-10-07T04:59:43.333Z,23.63
2022-10-07T05:02:14.737Z,16.67
2022-10-07T05:04:44.269Z,25.85
2022-10-07T05:07:13.952Z,22.00
2022-10-07T05:09:43.965Z,23.70
2022-10-07T05:12:14.242Z,25.00
2022-10-07T05:14:43.135Z,16.10
2022-10-07T05:17:12.977Z,21.42
2022-10-07T05:19:41.729Z,21.75
2022-10-07T05:22:10.026Z,20.55
2022-10-07T05:24:39.609Z,23.90
2022-10-07T05:27:07.927Z,25.15
2022-10-07T05:29:36.961Z,24.20
2022-10-07T05:32:05.476Z,21.70
2022-10-07T05:34:34.631Z,25.48
2022-10-07T05:37:02.645Z,25.33
2022-10-07T05:39:30.742Z,20.05
2022-10-07T05:42:07.780Z,20.80
2022-10-07T05:44:42.859Z,16.50
2022-10-07T05:47:12.706Z,17.23
2022-10-07T05:49:41.573Z,23.92
2022-10-07T05:52:09.658Z,25.30
2022-10-07T05:54:38.288Z,27.20
2022-10-07T05:57:07.704Z,17.55
2022-10-07T05:59:36.238Z,22.90
2022-10-07T06:02:05.409Z,32.63
2022-10-07T06:04:34.430Z,27.67
2022-10-07T06:07:05.405Z,22.45
2022-10-07T06:09:51.397Z,25.98
2022-10-07T06:12:38.963Z,28.17
2022-10-07T06:15:12.240Z,30.65
2022-10-07T06:17:48.925Z,28.40
2022-10-07T06:20:21.054Z,21.58
2022-10-07T06:22:53.197Z,22.63
2022-10-07T06:25:22.338Z,24.42
2022-10-07T06:27:54.643Z,26.20
2022-10-07T06:30:25.731Z,20.65
2022-10-07T06:35:26.194Z,35.53
2022-10-07T06:37:57.136Z,27.42
2022-10-07T06:40:25.243Z,24.20
2022-10-07T06:42:55.138Z,20.38
2022-10-07T06:45:32.662Z,23.02
2022-10-07T06:48:01.757Z,26.67
2022-10-07T06:50:32.858Z,18.67
2022-10-07T06:53:01.625Z,23.92
2022-10-07T06:55:32.873Z,18.17
2022-10-07T06:58:07.757Z,19.55
2022-10-07T07:00:39.673Z,48.72
2022-10-07T07:03:08.311Z,32.72
2022-10-07T07:05:41.495Z,21.48
2022-10-07T07:08:16.818Z,23.35
2022-10-07T07:10:49.056Z,21.65
2022-10-07T07:13:18.587Z,23.92
2022-10-07T07:15:56.100Z,21.17
2022-10-07T07:18:24.991Z,19.77
2022-10-07T07:20:54.101Z,23.63
2022-10-07T07:23:23.395Z,25.27
2022-10-07T07:25:51.418Z,21.67
2022-10-07T07:28:21.203Z,25.52
2022-10-07T07:30:50.497Z,19.08
2022-10-07T07:33:18.862Z,19.02
2022-10-07T07:35:46.922Z,19.30
2022-10-07T07:38:15.206Z,19.63
2022-10-07T07:40:43.443Z,19.38
2022-10-07T07:43:11.477Z,25.17
2022-10-07T07:45:43.132Z,28.10
2022-10-07T07:48:13.001Z,23.38
2022-10-07T07:50:41.712Z,20.35
2022-10-07T07:53:10.066Z,16.98
2022-10-07T07:55:38.936Z,21.90
2022-10-07T07:58:11.707Z,17.92
2022-10-07T08:00:45.974Z,15.90
2022-10-07T08:03:14.549Z,19.30
2022-10-07T08:05:43.529Z,21.88
2022-10-07T08:08:14.207Z,21.00
2022-10-07T08:10:43.082Z,21.10
2022-10-07T08:13:11.508Z,20.40
2022-10-07T08:15:43.696Z,18.05
2022-10-07T08:18:11.774Z,18.02
2022-10-07T08:20:39.790Z,20.23
2022-10-07T08:23:09.056Z,15.68
2022-10-07T08:25:37.441Z,23.85
2022-10-07T08:28:07.492Z,20.60
2022-10-07T08:30:36.056Z,21.95
2022-10-07T08:33:05.694Z,21.23
2022-10-07T08:35:33.672Z,17.98
2022-10-07T08:38:01.802Z,20.88
2022-10-07T08:40:30.054Z,15.35
2022-10-07T08:42:59.422Z,25.10
2022-10-07T08:45:31.595Z,16.60
2022-10-07T08:48:02.251Z,12.55
2022-10-07T08:50:51.584Z,13.82
2022-10-07T08:53:27.160Z,19.15
2022-10-07T08:56:09.267Z,13.48
2022-10-07T08:58:50.800Z,17.37
2022-10-07T09:01:38.956Z,17.67
2022-10-07T09:04:18.470Z,23.40
2022-10-07T09:06:55.341Z,19.25
2022-10-07T09:09:29.006Z,18.08
2022-10-07T09:12:00.661Z,16.90
2022-10-07T09:14:32.344Z,17.85
2022-10-07T09:17:07.561Z,15.77
2022-10-07T09:19:40.817Z,17.05
2022-10-07T09:22:17.344Z,23.05
2022-10-07T09:24:47.431Z,12.98
2022-10-07T09:27:18.256Z,17.73
2022-10-07T09:29:47.379Z,10.52
2022-10-07T09:32:18.772Z,12.35
2022-10-07T09:34:47.592Z,18.52
2022-10-07T09:37:20.825Z,15.88
2022-10-07T09:39:50.577Z,13.35
2022-10-07T09:42:29.596Z,10.45
2022-10-07T09:45:01.149Z,11.30
2022-10-07T09:47:36.051Z,15.05
2022-10-07T09:50:04.637Z,16.80
2022-10-07T09:52:34.177Z,14.13
2022-10-07T09:55:31.831Z,8.35
2022-10-07T09:58:05.115Z,11.32
2022-10-07T10:00:33.908Z,13.45
2022-10-07T10:03:06.513Z,14.57
2022-10-07T10:05:36.650Z,12.52
2022-10-07T10:08:20.371Z,11.98
2022-10-07T10:10:54.290Z,14.05
2022-10-07T10:13:32.657Z,9.82
2022-10-07T10:16:04.047Z,11.25
2022-10-07T10:18:38.585Z,11.52
2022-10-07T10:21:19.836Z,10.85
2022-10-07T10:23:52.459Z,16.45
2022-10-07T10:26:42.008Z,16.60
2022-10-07T10:29:32.359Z,12.68
2022-10-07T10:32:23.579Z,11.90
2022-10-07T10:34:57.897Z,14.23
2022-10-07T10:37:45.470Z,10.70
2022-10-07T10:40:24.625Z,14.68
2022-10-07T10:43:03.609Z,17.45
2022-10-07T10:45:44.014Z,15.20
2022-10-07T10:48:30.203Z,11.60
2022-10-07T10:51:07.078Z,15.45
2022-10-07T10:53:45.495Z,17.00
2022-10-07T10:56:32.298Z,12.93
2022-10-07T10:59:16.655Z,12.10
2022-10-07T11:01:46.319Z,11.60
2022-10-07T11:04:34.573Z,12.07
2022-10-07T11:07:09.393Z,10.07
2022-10-07T11:09:41.706Z,16.95
2022-10-07T11:12:22.217Z,15.00
2022-10-07T11:14:57.760Z,10.57
2022-10-07T11:17:31.287Z,11.02
2022-10-07T11:20:12.769Z,9.13
2022-10-07T11:22:46.428Z,9.55
2022-10-07T11:25:24.522Z,10.57
2022-10-07T11:28:00.417Z,11.88
2022-10-07T11:30:38.624Z,14.73
2022-10-07T11:33:14.579Z,15.98
2022-10-07T11:35:51.332Z,8.30
2022-10-07T11:38:23.017Z,7.80
2022-10-07T11:40:53.513Z,13.38
2022-10-07T11:43:29.870Z,11.48
2022-10-07T11:46:01.505Z,11.35
2022-10-07T11:48:37.621Z,10.23
2022-10-07T11:51:09.256Z,8.63
2022-10-07T11:53:40.421Z,6.47
2022-10-07T11:56:17.650Z,8.05
2022-10-07T11:58:48.849Z,14.80
2022-10-07T12:01:42.177Z,8.35
2022-10-07T12:04:46.777Z,11.15
2022-10-07T12:07:39.224Z,9.35
2022-10-07T12:10:25.903Z,7.10
2022-10-07T12:13:03.560Z,13.88
2022-10-07T12:15:35.913Z,7.93
2022-10-07T12:18:28.464Z,5.75
2022-10-07T12:21:08.144Z,9.55
2022-10-07T12:23:45.720Z,11.95
2022-10-07T12:26:55.818Z,7.80
2022-10-07T12:29:44.666Z,16.77
2022-10-07T12:32:46.282Z,12.73
2022-10-07T12:35:43.967Z,12.27
2022-10-07T12:38:23.401Z,8.52
2022-10-07T12:41:01.654Z,6.70
2022-10-07T12:43:47.623Z,8.05
2022-10-07T12:46:19.314Z,5.90
2022-10-07T12:48:55.781Z,8.77
2022-10-07T12:51:28.253Z,7.97
2022-10-07T12:54:00.139Z,17.58
2022-10-07T12:56:30.619Z,16.57
2022-10-07T12:59:43.473Z,9.32
2022-10-07T13:02:43.932Z,11.10
2022-10-07T13:05:49.854Z,13.52
2022-10-07T13:08:53.657Z,7.13
2022-10-07T13:11:49.280Z,14.80
2022-10-07T13:14:24.259Z,15.18
2022-10-07T13:16:57.985Z,8.82
2022-10-07T13:19:32.037Z,11.85
2022-10-07T13:22:08.085Z,12.88
2022-10-07T13:24:42.333Z,9.07
2022-10-07T13:27:11.306Z,12.75
2022-10-07T13:29:40.361Z,13.57
2022-10-07T13:32:15.203Z,12.43
2022-10-07T13:34:45.486Z,14.25
2022-10-07T13:37:27.748Z,14.30
2022-10-07T13:39:58.284Z,6.50
2022-10-07T13:42:29.883Z,11.75
2022-10-07T13:45:03.321Z,7.85
2022-10-07T13:47:36.301Z,10.82
2022-10-07T13:50:05.286Z,11.50
2022-10-07T13:52:36.590Z,10.93
2022-10-07T13:55:20.688Z,13.65
2022-10-07T13:57:49.286Z,9.30
2022-10-07T14:00:18.289Z,10.25
2022-10-07T14:02:49.127Z,10.65
2022-10-07T14:05:21.879Z,6.70
2022-10-07T14:07:54.693Z,8.27
2022-10-07T14:10:25.962Z,14.82
2022-10-07T14:12:58.827Z,9.32
2022-10-07T14:15:30.196Z,13.25
2022-10-07T14:18:00.485Z,16.63
2022-10-07T14:20:31.405Z,10.18
2022-10-07T14:23:01.651Z,8.32
2022-10-07T14:25:33.243Z,13.93
2022-10-07T14:28:19.742Z,9.15
2022-10-07T14:31:26.285Z,8.85
2022-10-07T14:34:17.480Z,7.82
2022-10-07T14:37:08.132Z,13.10
2022-10-07T14:39:37.845Z,8.60
2022-10-07T14:42:11.941Z,7.20
2022-10-07T14:44:43.951Z,12.07
2022-10-07T14:47:14.819Z,7.95
2022-10-07T14:49:43.709Z,12.60
2022-10-07T14:52:15.059Z,6.95
2022-10-07T14:54:43.437Z,8.50
2022-10-07T14:57:14.999Z,9.90
2022-10-07T14:59:43.237Z,8.70
2022-10-07T15:02:13.478Z,9.50
2022-10-07T15:04:45.263Z,10.85
2022-10-07T15:07:14.386Z,11.37
2022-10-07T15:09:42.694Z,14.88
2022-10-07T15:12:11.991Z,14.80
2022-10-07T15:14:41.437Z,13.00
2022-10-07T15:17:12.020Z,9.65
2022-10-07T15:19:40.647Z,11.32
2022-10-07T15:22:11.133Z,13.18
2022-10-07T15:24:39.845Z,9.18
2022-10-07T15:27:10.109Z,9.40
2022-10-07T15:29:40.289Z,13.25
2022-10-07T15:32:10.377Z,10.68
2022-10-07T15:34:38.668Z,8.02
2022-10-07T15:37:09.409Z,9.32
2022-10-07T15:39:39.843Z,11.18
2022-10-07T15:42:09.229Z,12.25
2022-10-07T15:44:37.350Z,9.18
2022-10-07T15:47:06.183Z,8.77
2022-10-07T15:49:36.195Z,8.50
2022-10-07T15:52:04.215Z,9.15
2022-10-07T15:54:32.651Z,11.90
2022-10-07T15:57:04.455Z,12.38
2022-10-07T15:59:33.214Z,10.20
2022-10-07T16:02:01.551Z,16.90
2022-10-07T16:04:30.191Z,11.77
2022-10-07T16:06:59.657Z,13.18
2022-10-07T16:09:29.122Z,20.35
2022-10-07T16:11:57.319Z,18.65
2022-10-07T16:14:25.620Z,13.90
2022-10-07T16:16:53.742Z,14.52
2022-10-07T16:19:22.314Z,11.68
2022-10-07T16:21:50.360Z,15.70
2022-10-07T16:24:22.295Z,17.23
2022-10-07T16:26:51.607Z,17.15
2022-10-07T16:29:38.921Z,19.35
2022-10-07T16:32:10.647Z,19.05
2022-10-07T16:34:41.993Z,22.92
2022-10-07T16:37:10.481Z,23.25
2022-10-07T16:39:42.344Z,17.52
2022-10-07T16:42:10.371Z,29.90
2022-10-07T16:44:38.790Z,27.92
2022-10-07T16:47:07.108Z,25.33
2022-10-07T16:49:36.431Z,26.75
2022-10-07T16:52:06.458Z,29.58
2022-10-07T16:54:37.361Z,26.53
2022-10-07T16:57:06.848Z,31.42
2022-10-07T16:59:35.519Z,32.72
2022-10-07T17:02:06.625Z,42.60
2022-10-07T17:04:38.340Z,33.22
2022-10-07T17:09:38.629Z,27.13
2022-10-07T17:12:09.206Z,26.45
2022-10-07T17:14:38.956Z,24.10
2022-10-07T17:17:07.892Z,27.95
2022-10-07T17:19:36.760Z,33.08
2022-10-07T17:22:07.240Z,28.25
2022-10-07T17:24:36.717Z,32.25
2022-10-07T17:27:05.341Z,42.20
2022-10-07T17:29:35.909Z,32.90
2022-10-07T17:32:07.076Z,26.38
2022-10-07T17:34:35.395Z,31.25
2022-10-07T17:37:03.603Z,33.22
2022-10-07T17:39:31.994Z,34.08
2022-10-07T17:42:00.312Z,32.88
2022-10-07T17:44:28.596Z,32.45
2022-10-07T17:46:59.776Z,31.10
2022-10-07T17:49:30.216Z,28.83
2022-10-07T17:51:58.923Z,29.25
2022-10-07T17:54:27.368Z,30.52
2022-10-07T17:56:55.438Z,26.58
2022-10-07T17:59:23.543Z,30.05
2022-10-07T18:01:51.887Z,28.17
2022-10-07T18:04:24.937Z,30.45
2022-10-07T18:06:53.889Z,35.65
2022-10-07T18:09:24.334Z,29.25
2022-10-07T18:12:10.095Z,39.20
2022-10-07T18:14:55.638Z,34.90
2022-10-07T18:17:25.044Z,28.48
2022-10-07T18:19:54.706Z,37.13
2022-10-07T18:22:24.664Z,37.00
2022-10-07T18:24:57.276Z,30.02
2022-10-07T18:27:27.042Z,32.03
2022-10-07T18:29:55.874Z,25.95
2022-10-07T18:32:25.305Z,37.20
2022-10-07T18:34:54.941Z,28.15
2022-10-07T18:37:23.880Z,36.92
2022-10-07T18:39:52.200Z,26.08
2022-10-07T18:42:20.323Z,29.40
2022-10-07T18:44:50.284Z,36.28
2022-10-07T18:47:18.421Z,28.95
2022-10-07T18:49:46.579Z,36.50
2022-10-07T18:52:16.018Z,24.95
2022-10-07T18:54:44.109Z,24.40
2022-10-07T18:57:15.721Z,24.35
2022-10-07T18:59:45.549Z,24.80
2022-10-07T19:02:13.887Z,27.23
2022-10-07T19:04:42.019Z,34.45
2022-10-07T19:07:10.785Z,22.65
2022-10-07T19:09:42.462Z,23.50
2022-10-07T19:12:30.540Z,26.70
2022-10-07T19:14:57.772Z,32.83
2022-10-07T19:17:26.377Z,32.35
2022-10-07T19:19:57.811Z,22.05
2022-10-07T19:22:26.168Z,28.08
2022-10-07T19:25:14.920Z,25.60
2022-10-07T19:27:43.266Z,28.25
2022-10-07T19:30:12.233Z,22.02
2022-10-07T19:32:40.798Z,28.77
2022-10-07T19:35:12.193Z,26.05
2022-10-07T19:37:42.450Z,24.50
2022-10-07T19:40:12.266Z,26.67
2022-10-07T19:42:40.878Z,27.75
2022-10-07T19:45:10.297Z,29.58
2022-10-07T19:47:38.445Z,34.90
2022-10-07T19:50:07.239Z,27.00
2022-10-07T19:52:35.332Z,29.52
2022-10-07T19:55:03.837Z,27.63
2022-10-07T19:57:33.393Z,25.17
2022-10-07T20:00:01.666Z,24.88
2022-10-07T20:02:29.928Z,36.97
2022-10-07T20:04:58.139Z,32.97
2022-10-07T20:07:26.172Z,19.77
2022-10-07T20:09:54.540Z,26.52
2022-10-07T20:12:23.019Z,26.63
2022-10-07T20:14:52.604Z,23.50
2022-10-07T20:17:20.689Z,30.23
2022-10-07T20:19:48.861Z,24.30
2022-10-07T20:22:16.899Z,30.13
2022-10-07T20:24:44.935Z,27.58
2022-10-07T20:27:13.025Z,22.23
2022-10-07T20:29:55.250Z,27.95
2022-10-07T20:32:25.293Z,27.63
2022-10-07T20:34:53.522Z,28.73
2022-10-07T20:37:21.972Z,24.80
2022-10-07T20:40:07.383Z,25.77
2022-10-07T20:42:35.698Z,27.83
2022-10-07T20:45:04.152Z,29.95
2022-10-07T20:47:35.827Z,28.35
2022-10-07T20:50:04.040Z,27.92
2022-10-07T20:52:35.118Z,27.30
2022-10-07T20:55:03.109Z,33.63
2022-10-07T20:57:37.834Z,28.33
2022-10-07T21:00:09.341Z,31.45
2022-10-07T21:02:38.652Z,28.98
2022-10-07T21:05:07.883Z,29.02
2022-10-07T21:07:35.977Z,30.02
2022-10-07T21:10:04.274Z,29.63
2022-10-07T21:12:34.384Z,34.28
2022-10-07T21:15:03.903Z,30.98
2022-10-07T21:17:32.018Z,29.58
2022-10-07T21:20:01.436Z,22.58
2022-10-07T21:22:29.679Z,25.45
2022-10-07T21:24:58.684Z,26.63
2022-10-07T21:27:26.802Z,24.67
2022-10-07T21:29:55.341Z,26.95
2022-10-07T21:32:23.473Z,29.13
2022-10-07T21:34:53.988Z,26.83
2022-10-07T21:37:23.445Z,24.35
2022-10-07T21:39:51.606Z,23.40
2022-10-07T21:42:19.639Z,24.63
2022-10-07T21:44:47.954Z,21.25
2022-10-07T21:47:16.154Z,27.42
2022-10-07T21:49:45.336Z,23.05
2022-10-07T21:52:13.548Z,21.60
2022-10-07T21:54:45.238Z,23.13
2022-10-07T21:57:13.350Z,24.73
2022-10-07T21:59:41.635Z,24.30
2022-10-07T22:02:09.885Z,18.25
2022-10-07T22:04:38.092Z,25.80
2022-10-07T22:07:23.864Z,21.10
2022-10-07T22:09:53.292Z,22.65
2022-10-07T22:12:21.397Z,16.13
2022-10-07T22:14:49.455Z,22.67
2022-10-07T22:17:20.283Z,16.52
2022-10-07T22:19:49.399Z,20.60
2022-10-07T22:22:17.675Z,18.92
2022-10-07T22:24:48.174Z,17.75
2022-10-07T22:27:17.998Z,17.40
2022-10-07T22:29:45.977Z,18.23
2022-10-07T22:32:13.922Z,17.35
2022-10-07T22:34:59.479Z,15.75
2022-10-07T22:37:27.602Z,17.08
2022-10-07T22:39:58.098Z,18.63
2022-10-07T22:42:27.692Z,14.63
2022-10-07T22:44:55.725Z,20.23
2022-10-07T22:47:23.659Z,18.67
2022-10-07T22:49:51.674Z,18.88
2022-10-07T22:52:19.668Z,16.13
2022-10-07T22:54:47.732Z,17.50
2022-10-07T22:57:16.552Z,21.67
2022-10-07T22:59:46.242Z,17.50
2022-10-07T23:02:14.494Z,18.33
2022-10-07T23:04:42.556Z,15.57
2022-10-07T23:07:10.679Z,17.00
2022-10-07T23:09:38.655Z,15.60
2022-10-07T23:12:09.137Z,18.83
2022-10-07T23:14:37.220Z,14.85
2022-10-07T23:17:06.569Z,19.98
2022-10-07T23:19:34.626Z,22.30
2022-10-07T23:22:02.627Z,17.33
2022-10-07T23:24:30.714Z,18.63
2022-10-07T23:26:58.970Z,17.30
2022-10-07T23:29:27.099Z,23.52
2022-10-07T23:31:55.196Z,17.38
2022-10-07T23:34:24.910Z,17.75
2022-10-07T23:36:55.253Z,18.03
2022-10-07T23:39:23.447Z,18.98
2022-10-07T23:41:51.473Z,19.92
2022-10-07T23:44:19.771Z,19.25
2022-10-07T23:46:50.007Z,22.42
2022-10-07T23:49:18.170Z,16.40
2022-10-07T23:51:47.554Z,22.60
2022-10-07T23:54:16.110Z,19.48
2022-10-07T23:56:44.282Z,28.20
2022-10-07T23:59:12.305Z,23.25
